| Data: 07/05/2026, Hora: 22:20 | |||||
| Act. | Màx. | Hora màxima | Mín. | Hora mínima | |
| Temperatura | 12,2 °C | 20,0 °C | 13:47 | 8,3 °C | 07:12 |
| Humitat | 89 % | 100 % | 05:02 | 54 % | 17:27 |
| Pressió | 1.014,9 hPa | 1.046,0 hPa | 02:24 | 1.013,6 hPa | 07:26 |
| Vent | 0 km/h | 24 km/h | 14:42 | ![]() |
|
| Direcció | N | ||||
| Precipitació | 0,0 mm | ||||
| Horari | Temperatura | Humitat | Pressió | Vent | Pluja | ||||||||
| Act. | Màx. | Mín. | Act. | Màx. | Mín. | Act. | Màx. | Mín. | Act. | Dir. | Màx. | ||
| 00:01 - 01:00 | 10,0 | 10,6 | 10,0 | 95 | 97 | 93 | 1014,5 | 1014,6 | 1014,3 | 2 | ESE | 13 | |
| 01:01 - 02:00 | 9,7 | 10,0 | 9,4 | 97 | 98 | 96 | 1014,5 | 1014,6 | 1014,3 | 3 | ESE | 10 | |
| 02:01 - 03:00 | 9,4 | 9,8 | 8,9 | 96 | 100 | 94 | 1014,2 | 1046,0 | 1013,9 | 4 | SE | 11 | |
| 03:01 - 04:00 | 9,0 | 9,4 | 8,9 | 94 | 95 | 92 | 1013,9 | 1013,9 | 1013,6 | 5 | SE | 13 | |
| 04:01 - 05:00 | 8,9 | 8,9 | 8,9 | 95 | 96 | 94 | 1013,6 | 1013,6 | 1013,6 | 6 | SE | 14 | |
| 05:01 - 06:00 | 8,7 | 9,2 | 8,3 | 96 | 100 | 96 | 1013,6 | 1045,3 | 1013,6 | 5 | SE | 13 | |
| 06:01 - 07:00 | 8,3 | 8,3 | 8,3 | 97 | 99 | 96 | 1013,6 | 1013,6 | 1013,6 | 5 | SE | 16 | |
| 07:01 - 08:00 | 9,4 | 10,6 | 8,3 | 96 | 99 | 90 | 1013,9 | 1014,3 | 1013,6 | 5 | SE | 16 | |
| 08:01 - 09:00 | 13,7 | 15,6 | 10,6 | 80 | 91 | 71 | 1015,0 | 1015,6 | 1014,3 | 0 | N | 8 | |
| 09:01 - 10:00 | 14,5 | 15,6 | 13,9 | 79 | 83 | 73 | 1015,7 | 1016,0 | 1015,6 | 1 | ENE | 13 | |
| 10:01 - 11:00 | 15,7 | 16,1 | 15,0 | 73 | 76 | 67 | 1015,8 | 1016,0 | 1015,6 | 2 | SSE | 13 | |
| 11:01 - 12:00 | 17,4 | 18,3 | 16,1 | 64 | 74 | 59 | 1016,1 | 1016,3 | 1015,6 | 2 | SSE | 11 | |
| 12:01 - 13:00 | 18,7 | 19,4 | 17,8 | 58 | 63 | 54 | 1016,0 | 1016,0 | 1016,0 | 3 | SW | 18 | |
| 13:01 - 14:00 | 18,5 | 20,0 | 17,4 | 60 | 64 | 55 | 1015,5 | 1016,0 | 1015,3 | 4 | WSW | 23 | |
| 14:01 - 15:00 | 19,0 | 19,4 | 18,3 | 59 | 62 | 56 | 1015,3 | 1015,3 | 1015,3 | 7 | NW | 24 | |
| 15:01 - 16:00 | 18,4 | 18,9 | 17,8 | 60 | 63 | 57 | 1014,9 | 1015,3 | 1014,6 | 6 | WNW | 21 | |
| 16:01 - 17:00 | 18,5 | 18,9 | 17,8 | 57 | 60 | 54 | 1014,5 | 1014,6 | 1014,3 | 5 | WNW | 21 | |
| 17:01 - 18:00 | 18,6 | 19,4 | 17,8 | 58 | 63 | 54 | 1014,1 | 1014,3 | 1013,9 | 5 | WNW | 18 | |
| 18:01 - 19:00 | 17,6 | 18,3 | 16,7 | 63 | 67 | 59 | 1013,9 | 1013,9 | 1013,9 | 2 | WSW | 13 | |
| 19:01 - 20:00 | 15,8 | 16,7 | 15,0 | 72 | 75 | 69 | 1013,9 | 1013,9 | 1013,9 | 1 | SSW | 14 | |
| 20:01 - 21:00 | 14,2 | 15,0 | 13,3 | 79 | 83 | 75 | 1014,2 | 1014,3 | 1013,9 | 1 | SSE | 14 | |
| 21:01 - 22:00 | 12,9 | 13,3 | 12,2 | 86 | 88 | 84 | 1014,4 | 1014,9 | 1014,3 | 0 | N | 0 | |
| 22:01 - 22:20 | 12,2 | 12,2 | 12,2 | 89 | 90 | 89 | 1014,9 | 1014,9 | 1014,9 | 0 | N | 0 | |
| 13,9 | 20,0 | 8,3 | 78 | 100 | 54 | 1014,6 | 1046,0 | 1013,6 | 3 | SSE | 24 | 0,0 | |